sensor_id;sensor_type;location;lat;lon;timestamp;pressure;altitude;pressure_sealevel;temperature;humidity
65716;BME280;63484;52.054;8.518;2023-02-14T00:01:41;102672.28;;;1.17;100.00
65716;BME280;63484;52.054;8.518;2023-02-14T00:06:42;102674.88;;;1.16;100.00
65716;BME280;63484;52.054;8.518;2023-02-14T00:11:45;102667.03;;;1.10;100.00
65716;BME280;63484;52.054;8.518;2023-02-14T00:16:47;102656.72;;;1.13;100.00
65716;BME280;63484;52.054;8.518;2023-02-14T00:21:48;102660.13;;;1.10;100.00
65716;BME280;63484;52.054;8.518;2023-02-14T00:26:52;102665.31;;;1.12;100.00
65716;BME280;63484;52.054;8.518;2023-02-14T00:31:54;102666.16;;;1.08;100.00
65716;BME280;63484;52.054;8.518;2023-02-14T00:36:57;102669.53;;;1.01;100.00
65716;BME280;63484;52.054;8.518;2023-02-14T00:42:00;102666.91;;;0.99;100.00
65716;BME280;63484;52.054;8.518;2023-02-14T00:47:02;102674.63;;;0.93;100.00
65716;BME280;63484;52.054;8.518;2023-02-14T00:52:04;102677.28;;;0.99;100.00
65716;BME280;63484;52.054;8.518;2023-02-14T00:57:06;102678.09;;;0.94;100.00
65716;BME280;63484;52.054;8.518;2023-02-14T01:02:09;102674.56;;;0.86;100.00
65716;BME280;63484;52.054;8.518;2023-02-14T01:07:11;102679.63;;;0.80;100.00
65716;BME280;63484;52.054;8.518;2023-02-14T01:12:13;102677.88;;;0.76;100.00
65716;BME280;63484;52.054;8.518;2023-02-14T01:17:16;102686.44;;;0.72;100.00
65716;BME280;63484;52.054;8.518;2023-02-14T01:22:17;102680.47;;;0.74;100.00
65716;BME280;63484;52.054;8.518;2023-02-14T01:27:20;102689.94;;;0.74;100.00
65716;BME280;63484;52.054;8.518;2023-02-14T01:32:21;102677.63;;;0.56;100.00
65716;BME280;63484;52.054;8.518;2023-02-14T01:37:24;102671.56;;;0.54;100.00
65716;BME280;63484;52.054;8.518;2023-02-14T01:42:27;102687.88;;;0.49;100.00
65716;BME280;63484;52.054;8.518;2023-02-14T01:47:32;102689.56;;;0.44;100.00
65716;BME280;63484;52.054;8.518;2023-02-14T01:52:36;102682.56;;;0.37;100.00
65716;BME280;63484;52.054;8.518;2023-02-14T01:57:46;102691.06;;;0.30;100.00
65716;BME280;63484;52.054;8.518;2023-02-14T02:02:50;102678.00;;;0.19;100.00
65716;BME280;63484;52.054;8.518;2023-02-14T02:07:54;102677.03;;;0.13;100.00
65716;BME280;63484;52.054;8.518;2023-02-14T02:13:02;102675.25;;;0.09;100.00
65716;BME280;63484;52.054;8.518;2023-02-14T02:18:08;102665.81;;;0.11;100.00
65716;BME280;63484;52.054;8.518;2023-02-14T02:29:06;102655.38;;;0.05;100.00
65716;BME280;63484;52.054;8.518;2023-02-14T02:34:56;102648.44;;;0.02;100.00
65716;BME280;63484;52.054;8.518;2023-02-14T02:40:06;102643.16;;;-0.07;100.00
65716;BME280;63484;52.054;8.518;2023-02-14T02:45:12;102633.59;;;-0.13;100.00
65716;BME280;63484;52.054;8.518;2023-02-14T02:50:23;102631.81;;;-0.17;100.00
65716;BME280;63484;52.054;8.518;2023-02-14T02:55:50;102628.38;;;-0.16;100.00
65716;BME280;63484;52.054;8.518;2023-02-14T03:01:14;102617.22;;;-0.13;100.00
65716;BME280;63484;52.054;8.518;2023-02-14T03:06:19;102612.84;;;-0.17;100.00
65716;BME280;63484;52.054;8.518;2023-02-14T03:11:20;102608.53;;;-0.18;100.00
65716;BME280;63484;52.054;8.518;2023-02-14T03:16:29;102603.47;;;-0.11;100.00
65716;BME280;63484;52.054;8.518;2023-02-14T03:21:38;102605.97;;;-0.17;100.00
65716;BME280;63484;52.054;8.518;2023-02-14T03:26:47;102608.53;;;-0.18;100.00
65716;BME280;63484;52.054;8.518;2023-02-14T03:31:57;102607.66;;;-0.19;100.00
65716;BME280;63484;52.054;8.518;2023-02-14T03:37:07;102606.75;;;-0.21;100.00
65716;BME280;63484;52.054;8.518;2023-02-14T03:42:14;102598.16;;;-0.21;100.00
65716;BME280;63484;52.054;8.518;2023-02-14T03:47:19;102595.44;;;-0.29;100.00
65716;BME280;63484;52.054;8.518;2023-02-14T03:52:25;102595.38;;;-0.33;100.00
65716;BME280;63484;52.054;8.518;2023-02-14T03:57:31;102591.13;;;-0.31;100.00
65716;BME280;63484;52.054;8.518;2023-02-14T04:02:37;102596.31;;;-0.30;100.00
65716;BME280;63484;52.054;8.518;2023-02-14T04:07:46;102585.03;;;-0.35;100.00
65716;BME280;63484;52.054;8.518;2023-02-14T04:12:48;102579.88;;;-0.35;100.00
65716;BME280;63484;52.054;8.518;2023-02-14T04:17:50;102575.53;;;-0.36;100.00
65716;BME280;63484;52.054;8.518;2023-02-14T04:23:10;102578.94;;;-0.40;100.00
65716;BME280;63484;52.054;8.518;2023-02-14T04:28:11;102584.06;;;-0.41;100.00
65716;BME280;63484;52.054;8.518;2023-02-14T04:33:13;102576.31;;;-0.43;100.00
65716;BME280;63484;52.054;8.518;2023-02-14T04:38:16;102583.09;;;-0.49;100.00
65716;BME280;63484;52.054;8.518;2023-02-14T04:43:18;102577.91;;;-0.51;100.00
65716;BME280;63484;52.054;8.518;2023-02-14T04:48:19;102570.97;;;-0.53;100.00
65716;BME280;63484;52.054;8.518;2023-02-14T04:53:22;102565.75;;;-0.56;100.00
65716;BME280;63484;52.054;8.518;2023-02-14T04:58:23;102557.97;;;-0.59;100.00
65716;BME280;63484;52.054;8.518;2023-02-14T05:03:25;102557.00;;;-0.66;100.00
65716;BME280;63484;52.054;8.518;2023-02-14T05:08:28;102561.25;;;-0.68;100.00
65716;BME280;63484;52.054;8.518;2023-02-14T05:13:29;102561.25;;;-0.69;100.00
65716;BME280;63484;52.054;8.518;2023-02-14T05:18:31;102567.25;;;-0.72;100.00
65716;BME280;63484;52.054;8.518;2023-02-14T05:23:34;102565.50;;;-0.71;100.00
65716;BME280;63484;52.054;8.518;2023-02-14T05:28:35;102557.88;;;-0.65;100.00
65716;BME280;63484;52.054;8.518;2023-02-14T05:33:39;102563.13;;;-0.59;100.00
65716;BME280;63484;52.054;8.518;2023-02-14T05:38:42;102562.19;;;-0.64;100.00
65716;BME280;63484;52.054;8.518;2023-02-14T05:43:43;102563.84;;;-0.68;100.00
65716;BME280;63484;52.054;8.518;2023-02-14T05:48:44;102564.69;;;-0.69;100.00
65716;BME280;63484;52.054;8.518;2023-02-14T05:53:47;102568.09;;;-0.71;100.00
65716;BME280;63484;52.054;8.518;2023-02-14T05:58:49;102569.00;;;-0.68;100.00
65716;BME280;63484;52.054;8.518;2023-02-14T06:03:50;102570.75;;;-0.68;100.00
65716;BME280;63484;52.054;8.518;2023-02-14T06:08:53;102569.81;;;-0.72;100.00
65716;BME280;63484;52.054;8.518;2023-02-14T06:13:54;102575.75;;;-0.76;100.00
65716;BME280;63484;52.054;8.518;2023-02-14T06:18:56;102576.56;;;-0.80;100.00
65716;BME280;63484;52.054;8.518;2023-02-14T06:23:59;102586.91;;;-0.80;100.00
65716;BME280;63484;52.054;8.518;2023-02-14T06:29:01;102584.38;;;-0.77;100.00
65716;BME280;63484;52.054;8.518;2023-02-14T06:34:03;102586.00;;;-0.82;100.00
65716;BME280;63484;52.054;8.518;2023-02-14T06:39:05;102591.19;;;-0.80;100.00
65716;BME280;63484;52.054;8.518;2023-02-14T06:44:07;102581.75;;;-0.80;100.00
65716;BME280;63484;52.054;8.518;2023-02-14T06:49:09;102593.00;;;-0.75;100.00
65716;BME280;63484;52.054;8.518;2023-02-14T06:54:12;102587.94;;;-0.69;100.00
65716;BME280;63484;52.054;8.518;2023-02-14T06:59:14;102588.84;;;-0.67;100.00
65716;BME280;63484;52.054;8.518;2023-02-14T07:04:15;102591.63;;;-0.52;100.00
65716;BME280;63484;52.054;8.518;2023-02-14T07:09:19;102600.50;;;-0.36;100.00
65716;BME280;63484;52.054;8.518;2023-02-14T07:14:20;102604.06;;;-0.30;98.47
65716;BME280;63484;52.054;8.518;2023-02-14T07:19:22;102599.94;;;-0.16;98.34
65716;BME280;63484;52.054;8.518;2023-02-14T07:24:25;102604.53;;;0.07;97.74
65716;BME280;63484;52.054;8.518;2023-02-14T07:29:27;102601.34;;;0.23;96.46
65716;BME280;63484;52.054;8.518;2023-02-14T07:34:28;102594.16;;;0.71;94.54
65716;BME280;63484;52.054;8.518;2023-02-14T07:39:31;102600.97;;;1.57;90.47
65716;BME280;63484;52.054;8.518;2023-02-14T07:44:32;102591.00;;;2.22;86.38
65716;BME280;63484;52.054;8.518;2023-02-14T07:49:34;102581.66;;;2.78;83.37
65716;BME280;63484;52.054;8.518;2023-02-14T07:54:37;102575.56;;;3.95;79.23
65716;BME280;63484;52.054;8.518;2023-02-14T07:59:39;102575.56;;;5.43;73.20
65716;BME280;63484;52.054;8.518;2023-02-14T08:04:40;102575.31;;;6.46;69.52
65716;BME280;63484;52.054;8.518;2023-02-14T08:09:43;102577.00;;;7.09;65.77
65716;BME280;63484;52.054;8.518;2023-02-14T08:14:44;102573.16;;;7.31;66.04
65716;BME280;63484;52.054;8.518;2023-02-14T08:19:46;102575.78;;;7.33;66.30
65716;BME280;63484;52.054;8.518;2023-02-14T08:24:48;102567.34;;;7.14;66.86
65716;BME280;63484;52.054;8.518;2023-02-14T08:29:50;102562.56;;;7.87;66.20
65716;BME280;63484;52.054;8.518;2023-02-14T08:34:51;102569.88;;;9.32;62.88
65716;BME280;63484;52.054;8.518;2023-02-14T08:39:54;102563.38;;;10.41;59.56
65716;BME280;63484;52.054;8.518;2023-02-14T08:44:56;102562.03;;;8.57;62.27
65716;BME280;63484;52.054;8.518;2023-02-14T08:49:57;102558.50;;;6.63;70.59
65716;BME280;63484;52.054;8.518;2023-02-14T08:55:00;102553.44;;;5.85;75.22
65716;BME280;63484;52.054;8.518;2023-02-14T09:00:05;102560.75;;;5.45;79.43
65716;BME280;63484;52.054;8.518;2023-02-14T09:05:07;102551.06;;;5.54;79.92
65716;BME280;63484;52.054;8.518;2023-02-14T09:10:11;102548.53;;;5.48;81.43
65716;BME280;63484;52.054;8.518;2023-02-14T09:15:13;102545.78;;;5.65;81.44
65716;BME280;63484;52.054;8.518;2023-02-14T09:20:15;102556.28;;;5.56;82.35
65716;BME280;63484;52.054;8.518;2023-02-14T09:25:18;102550.13;;;5.64;83.14
65716;BME280;63484;52.054;8.518;2023-02-14T09:30:20;102537.81;;;5.79;82.41
65716;BME280;63484;52.054;8.518;2023-02-14T09:35:22;102547.25;;;5.90;81.78
65716;BME280;63484;52.054;8.518;2023-02-14T09:40:42;102548.06;;;5.95;82.52
65716;BME280;63484;52.054;8.518;2023-02-14T09:45:46;102545.41;;;6.01;82.01
65716;BME280;63484;52.054;8.518;2023-02-14T09:50:53;102540.88;;;6.15;82.36
65716;BME280;63484;52.054;8.518;2023-02-14T09:56:04;102536.25;;;6.38;81.51
65716;BME280;63484;52.054;8.518;2023-02-14T10:01:14;102542.22;;;6.46;80.84
65716;BME280;63484;52.054;8.518;2023-02-14T10:06:27;102529.81;;;6.60;80.45
65716;BME280;63484;52.054;8.518;2023-02-14T10:11:37;102528.59;;;6.82;79.98
65716;BME280;63484;52.054;8.518;2023-02-14T10:16:43;102523.03;;;7.03;79.60
65716;BME280;63484;52.054;8.518;2023-02-14T10:21:50;102521.09;;;7.18;78.92
65716;BME280;63484;52.054;8.518;2023-02-14T10:26:56;102516.59;;;7.24;79.26
65716;BME280;63484;52.054;8.518;2023-02-14T10:32:03;102522.44;;;7.40;78.67
65716;BME280;63484;52.054;8.518;2023-02-14T10:37:17;102502.75;;;7.66;77.68
65716;BME280;63484;52.054;8.518;2023-02-14T10:42:32;102496.97;;;7.93;77.23
65716;BME280;63484;52.054;8.518;2023-02-14T10:47:38;102494.16;;;8.02;76.08
65716;BME280;63484;52.054;8.518;2023-02-14T10:52:47;102498.81;;;8.31;74.84
65716;BME280;63484;52.054;8.518;2023-02-14T10:57:57;102488.16;;;8.38;74.60
65716;BME280;63484;52.054;8.518;2023-02-14T11:03:05;102485.88;;;8.62;73.37
65716;BME280;63484;52.054;8.518;2023-02-14T11:08:13;102474.28;;;8.72;73.38
65716;BME280;63484;52.054;8.518;2023-02-14T11:13:31;102476.16;;;9.02;72.91
65716;BME280;63484;52.054;8.518;2023-02-14T11:18:34;102478.34;;;9.18;72.25
65716;BME280;63484;52.054;8.518;2023-02-14T11:23:38;102470.03;;;9.35;71.32
65716;BME280;63484;52.054;8.518;2023-02-14T11:28:50;102453.00;;;9.49;70.80
65716;BME280;63484;52.054;8.518;2023-02-14T11:33:52;102452.50;;;9.67;70.84
65716;BME280;63484;52.054;8.518;2023-02-14T11:58:28;102409.44;;;10.83;66.25
65716;BME280;63484;52.054;8.518;2023-02-14T12:03:36;102401.63;;;11.06;65.13
65716;BME280;63484;52.054;8.518;2023-02-14T12:08:39;102393.56;;;11.11;64.93
65716;BME280;63484;52.054;8.518;2023-02-14T12:13:50;102391.81;;;11.36;64.46
65716;BME280;63484;52.054;8.518;2023-02-14T12:18:55;102375.72;;;11.44;64.13
65716;BME280;63484;52.054;8.518;2023-02-14T12:24:04;102377.78;;;11.59;62.13
65716;BME280;63484;52.054;8.518;2023-02-14T12:29:14;102372.19;;;11.68;61.83
65716;BME280;63484;52.054;8.518;2023-02-14T12:59:06;102319.72;;;12.68;54.17
65716;BME280;63484;52.054;8.518;2023-02-14T13:09:49;102301.94;;;12.93;56.37
65716;BME280;63484;52.054;8.518;2023-02-14T13:45:59;102256.94;;;13.15;56.90
65716;BME280;63484;52.054;8.518;2023-02-14T13:51:02;102250.03;;;13.12;55.90
65716;BME280;63484;52.054;8.518;2023-02-14T14:08:45;102256.81;;;13.18;56.26
65716;BME280;63484;52.054;8.518;2023-02-14T14:14:01;102249.16;;;13.12;56.21
65716;BME280;63484;52.054;8.518;2023-02-14T14:19:32;102250.88;;;13.13;56.14
65716;BME280;63484;52.054;8.518;2023-02-14T14:43:44;102224.41;;;13.14;54.96
65716;BME280;63484;52.054;8.518;2023-02-14T14:48:50;102220.19;;;13.10;56.86
65716;BME280;63484;52.054;8.518;2023-02-14T14:53:55;102215.13;;;13.24;57.56
65716;BME280;63484;52.054;8.518;2023-02-14T14:59:15;102209.09;;;13.02;58.47
65716;BME280;63484;52.054;8.518;2023-02-14T15:04:18;102199.53;;;13.18;58.32
65716;BME280;63484;52.054;8.518;2023-02-14T15:09:22;102201.69;;;13.10;58.83
65716;BME280;63484;52.054;8.518;2023-02-14T15:14:26;102198.81;;;12.96;59.57
65716;BME280;63484;52.054;8.518;2023-02-14T15:19:30;102198.09;;;12.93;60.52
65716;BME280;63484;52.054;8.518;2023-02-14T15:24:37;102197.66;;;12.83;61.25
65716;BME280;63484;52.054;8.518;2023-02-14T15:29:39;102199.22;;;12.87;61.70
65716;BME280;63484;52.054;8.518;2023-02-14T15:41:19;102197.22;;;12.53;63.64
65716;BME280;63484;52.054;8.518;2023-02-14T15:52:06;102189.44;;;12.30;64.88
65716;BME280;63484;52.054;8.518;2023-02-14T15:57:18;102194.34;;;12.19;65.18
65716;BME280;63484;52.054;8.518;2023-02-14T16:02:28;102197.81;;;12.00;65.87
65716;BME280;63484;52.054;8.518;2023-02-14T16:07:34;102195.94;;;11.82;66.86
65716;BME280;63484;52.054;8.518;2023-02-14T16:12:35;102192.00;;;11.72;67.02
65716;BME280;63484;52.054;8.518;2023-02-14T16:17:38;102194.41;;;11.55;67.84
65716;BME280;63484;52.054;8.518;2023-02-14T16:22:42;102200.44;;;11.35;68.62
65716;BME280;63484;52.054;8.518;2023-02-14T16:27:43;102193.50;;;11.11;69.61
65716;BME280;63484;52.054;8.518;2023-02-14T16:32:47;102188.25;;;10.88;70.55
65716;BME280;63484;52.054;8.518;2023-02-14T16:37:54;102194.25;;;10.68;71.46
65716;BME280;63484;52.054;8.518;2023-02-14T16:42:55;102196.97;;;10.42;72.31
65716;BME280;63484;52.054;8.518;2023-02-14T16:47:59;102190.09;;;10.14;73.39
65716;BME280;63484;52.054;8.518;2023-02-14T16:53:03;102186.59;;;9.87;75.18
65716;BME280;63484;52.054;8.518;2023-02-14T16:58:05;102185.72;;;9.60;75.52
65716;BME280;63484;52.054;8.518;2023-02-14T17:03:07;102187.50;;;9.32;77.22
65716;BME280;63484;52.054;8.518;2023-02-14T17:08:12;102191.69;;;9.10;77.67
65716;BME280;63484;52.054;8.518;2023-02-14T17:13:15;102189.84;;;8.85;79.12
65716;BME280;63484;52.054;8.518;2023-02-14T17:18:19;102187.97;;;8.58;80.61
65716;BME280;63484;52.054;8.518;2023-02-14T17:23:23;102187.91;;;8.28;81.78
65716;BME280;63484;52.054;8.518;2023-02-14T17:28:25;102193.75;;;8.04;82.65
65716;BME280;63484;52.054;8.518;2023-02-14T17:33:26;102198.00;;;7.76;82.94
65716;BME280;63484;52.054;8.518;2023-02-14T17:38:31;102205.69;;;7.47;84.07
65716;BME280;63484;52.054;8.518;2023-02-14T17:43:32;102203.59;;;7.23;85.01
65716;BME280;63484;52.054;8.518;2023-02-14T17:48:34;102202.28;;;7.04;85.91
65716;BME280;63484;52.054;8.518;2023-02-14T17:53:37;102196.50;;;6.90;86.91
65716;BME280;63484;52.054;8.518;2023-02-14T17:58:40;102186.28;;;6.78;86.84
65716;BME280;63484;52.054;8.518;2023-02-14T18:03:42;102186.63;;;6.60;88.11
65716;BME280;63484;52.054;8.518;2023-02-14T18:08:47;102184.41;;;6.42;87.41
65716;BME280;63484;52.054;8.518;2023-02-14T18:13:49;102177.78;;;6.23;88.37
65716;BME280;63484;52.054;8.518;2023-02-14T18:18:51;102171.22;;;6.02;89.16
65716;BME280;63484;52.054;8.518;2023-02-14T18:23:55;102171.44;;;5.89;89.32
65716;BME280;63484;52.054;8.518;2023-02-14T18:28:59;102170.00;;;5.69;90.36
65716;BME280;63484;52.054;8.518;2023-02-14T18:34:05;102159.97;;;5.45;90.82
65716;BME280;63484;52.054;8.518;2023-02-14T18:39:09;102154.19;;;5.25;91.85
65716;BME280;63484;52.054;8.518;2023-02-14T18:44:10;102156.09;;;5.14;92.21
65716;BME280;63484;52.054;8.518;2023-02-14T18:49:13;102157.16;;;5.01;92.33
65716;BME280;63484;52.054;8.518;2023-02-14T18:54:16;102153.97;;;4.81;92.72
65716;BME280;63484;52.054;8.518;2023-02-14T18:59:17;102156.81;;;4.63;93.28
65716;BME280;63484;52.054;8.518;2023-02-14T19:04:19;102157.91;;;4.43;93.85
65716;BME280;63484;52.054;8.518;2023-02-14T19:09:22;102145.13;;;4.20;93.28
65716;BME280;63484;52.054;8.518;2023-02-14T19:14:26;102144.44;;;4.06;93.72
65716;BME280;63484;52.054;8.518;2023-02-14T19:19:27;102141.97;;;3.92;93.18
65716;BME280;63484;52.054;8.518;2023-02-14T19:24:30;102134.31;;;3.79;93.97
65716;BME280;63484;52.054;8.518;2023-02-14T19:29:32;102129.19;;;3.68;93.86
65716;BME280;63484;52.054;8.518;2023-02-14T19:34:33;102128.38;;;3.62;94.63
65716;BME280;63484;52.054;8.518;2023-02-14T19:39:36;102131.91;;;3.55;94.79
65716;BME280;63484;52.054;8.518;2023-02-14T19:44:38;102131.13;;;3.47;95.75
65716;BME280;63484;52.054;8.518;2023-02-14T19:49:39;102129.47;;;3.37;96.03
65716;BME280;63484;52.054;8.518;2023-02-14T19:54:42;102132.97;;;3.30;96.27
65716;BME280;63484;52.054;8.518;2023-02-14T19:59:45;102128.69;;;3.21;96.47
65716;BME280;63484;52.054;8.518;2023-02-14T20:04:46;102132.25;;;3.08;95.92
65716;BME280;63484;52.054;8.518;2023-02-14T20:09:49;102129.75;;;2.98;95.64
65716;BME280;63484;52.054;8.518;2023-02-14T20:14:50;102122.81;;;2.94;96.18
65716;BME280;63484;52.054;8.518;2023-02-14T20:19:53;102122.84;;;2.89;96.08
65716;BME280;63484;52.054;8.518;2023-02-14T20:24:56;102123.75;;;2.80;96.12
65716;BME280;63484;52.054;8.518;2023-02-14T20:29:57;102122.94;;;2.77;96.72
65716;BME280;63484;52.054;8.518;2023-02-14T20:34:59;102123.88;;;2.65;96.28
65716;BME280;63484;52.054;8.518;2023-02-14T20:40:02;102126.47;;;2.56;96.90
65716;BME280;63484;52.054;8.518;2023-02-14T20:45:04;102125.66;;;2.48;97.62
65716;BME280;63484;52.054;8.518;2023-02-14T20:50:06;102117.03;;;2.43;98.20
65716;BME280;63484;52.054;8.518;2023-02-14T20:55:09;102114.47;;;2.36;97.97
65716;BME280;63484;52.054;8.518;2023-02-14T21:00:11;102112.78;;;2.26;97.91
65716;BME280;63484;52.054;8.518;2023-02-14T21:05:12;102108.47;;;2.14;97.52
65716;BME280;63484;52.054;8.518;2023-02-14T21:10:19;102097.25;;;2.14;98.32
65716;BME280;63484;52.054;8.518;2023-02-14T21:15:20;102098.09;;;2.14;98.47
65716;BME280;63484;52.054;8.518;2023-02-14T21:20:22;102101.63;;;2.04;98.23
65716;BME280;63484;52.054;8.518;2023-02-14T21:25:25;102098.16;;;1.92;97.95
65716;BME280;63484;52.054;8.518;2023-02-14T21:30:26;102101.66;;;1.83;98.07
65716;BME280;63484;52.054;8.518;2023-02-14T21:35:30;102099.06;;;1.76;98.48
65716;BME280;63484;52.054;8.518;2023-02-14T21:40:33;102093.03;;;1.65;98.16
65716;BME280;63484;52.054;8.518;2023-02-14T21:45:34;102086.13;;;1.59;98.25
65716;BME280;63484;52.054;8.518;2023-02-14T21:50:54;102084.41;;;1.46;98.40
65716;BME280;63484;52.054;8.518;2023-02-14T21:56:04;102086.16;;;1.36;98.75
65716;BME280;63484;52.054;8.518;2023-02-14T22:01:06;102082.72;;;1.40;99.47
65716;BME280;63484;52.054;8.518;2023-02-14T22:06:08;102080.09;;;1.31;97.74
65716;BME280;63484;52.054;8.518;2023-02-14T22:11:14;102082.72;;;1.18;97.72
65716;BME280;63484;52.054;8.518;2023-02-14T22:16:18;102086.16;;;1.14;98.39
65716;BME280;63484;52.054;8.518;2023-02-14T22:21:21;102086.16;;;1.11;98.62
65716;BME280;63484;52.054;8.518;2023-02-14T22:26:26;102093.03;;;1.10;98.79
65716;BME280;63484;52.054;8.518;2023-02-14T22:31:31;102095.63;;;1.10;99.16
65716;BME280;63484;52.054;8.518;2023-02-14T22:36:33;102092.19;;;1.04;99.01
65716;BME280;63484;52.054;8.518;2023-02-14T22:41:36;102102.53;;;0.98;99.04
65716;BME280;63484;52.054;8.518;2023-02-14T22:46:38;102097.34;;;0.93;98.79
65716;BME280;63484;52.054;8.518;2023-02-14T22:51:40;102091.31;;;0.85;98.98
65716;BME280;63484;52.054;8.518;2023-02-14T22:56:44;102091.31;;;0.82;99.02
65716;BME280;63484;52.054;8.518;2023-02-14T23:01:47;102087.84;;;0.82;99.04
65716;BME280;63484;52.054;8.518;2023-02-14T23:06:49;102087.84;;;0.82;99.26
65716;BME280;63484;52.054;8.518;2023-02-14T23:11:52;102081.78;;;0.80;99.13
65716;BME280;63484;52.054;8.518;2023-02-14T23:16:54;102079.19;;;0.78;99.18
65716;BME280;63484;52.054;8.518;2023-02-14T23:22:28;102086.97;;;0.80;99.64
65716;BME280;63484;52.054;8.518;2023-02-14T23:27:35;102087.84;;;0.76;99.05
65716;BME280;63484;52.054;8.518;2023-02-14T23:32:37;102084.38;;;0.74;99.03
65716;BME280;63484;52.054;8.518;2023-02-14T23:37:38;102084.38;;;0.71;98.89
65716;BME280;63484;52.054;8.518;2023-02-14T23:42:42;102067.97;;;0.70;99.52
65716;BME280;63484;52.054;8.518;2023-02-14T23:47:44;102064.56;;;0.73;99.00
65716;BME280;63484;52.054;8.518;2023-02-14T23:52:46;102062.81;;;0.69;98.50
65716;BME280;63484;52.054;8.518;2023-02-14T23:57:49;102064.50;;;0.62;98.32
